»·PEaware :: SNIPER91 KLSV-KLSV

SNIPER91 :: KLSV-KLSV

FLIGHT INFORMATION

Flight Status: Arrived
Operator: Unknown
More flights by this operator :: More flights under this callsign
Pilot: Anthony C. (15741)
Aircraft: NORTHROP F-5 FREEDON FIGHTER
(F5)
More flights by this aircraft type
Origin: KLSV Nellis AFB
United States
Destination: KLSV Nellis AFB
United States
More flights between these airports :: More routes between these airports
Route: +DREAM4 JUNNO
File this flight plan on PilotEdge
Remarks: CLNC LIMIT JUUNO
Altitude:
(Current/Filed)
17,000ft
Speed:
(Current/Filed)
350kts
Departed: 23-Jun-17 09:41 PM
Arrived: 23-Jun-17 10:16 PM
Distance/Time
Traveled:
1nm/0:35
Distance/Time
To Go:
Arrived

Flight Plot

Page will automatically refresh every two minutes.

Flight plan parsing failed; only flown route is shown


Map Options




Map Legend


Flown Route
Filed Route
Departure Airport
Arrival Airport
Navaid (VOR, NDB)
Fix

Horizontal Profiles

Position Reports

Time Latitude Longitude Heading Altitude Ground
Speed
23-Jun-17 21:31 36.232358 -115.022535 94 1849ft 0kts
23-Jun-17 21:32 36.232358 -115.022535 94 1849ft 0kts
23-Jun-17 21:33 36.232358 -115.022535 94 1849ft 0kts
23-Jun-17 21:34 36.232358 -115.022535 94 1849ft 0kts
23-Jun-17 21:35 36.232358 -115.022535 94 1849ft 0kts
23-Jun-17 21:36 36.232358 -115.022535 94 1849ft 0kts
23-Jun-17 21:37 36.232358 -115.022535 94 1849ft 0kts
23-Jun-17 21:38 36.232044 -115.022481 240 1849ft 6kts
23-Jun-17 21:39 36.231063 -115.025932 244 1848ft 15kts
23-Jun-17 21:40 36.230336 -115.032092 219 1847ft 20kts
23-Jun-17 21:41 36.225716 -115.037096 220 1847ft 19kts
23-Jun-17 21:42 36.223330 -115.041865 310 1846ft 16kts
23-Jun-17 21:43 36.225870 -115.043136 40 1847ft 32kts
23-Jun-17 21:44 36.269365 -114.994150 44 4129ft 303kts
23-Jun-17 21:45 36.325646 -114.916620 12 7689ft 270kts
23-Jun-17 21:46 36.412326 -114.960147 345 10477ft 364kts
23-Jun-17 21:47 36.518669 -114.991376 345 13513ft 398kts
23-Jun-17 21:48 36.629197 -115.024417 343 16598ft 418kts
23-Jun-17 21:49 36.746869 -115.055036 353 17772ft 447kts
23-Jun-17 21:50 36.869296 -115.085704 300 16963ft 460kts
23-Jun-17 21:51 36.955788 -115.195646 3 12823ft 452kts
23-Jun-17 21:52 37.047671 -115.175691 182 4049ft 272kts
23-Jun-17 21:53 36.962685 -115.174490 172 6991ft 348kts
23-Jun-17 21:54 36.995129 -115.195189 358 4575ft 417kts
23-Jun-17 21:55 37.088886 -115.258510 306 5068ft 427kts
23-Jun-17 21:56 37.038550 -115.310319 110 5219ft 456kts
23-Jun-17 21:57 37.054438 -115.235159 205 4584ft 400kts
23-Jun-17 21:58 37.041165 -115.155124 277 10279ft 150kts
23-Jun-17 21:59 37.004392 -115.204776 74 4674ft 273kts
23-Jun-17 22:00 37.045051 -115.216441 220 6663ft 329kts
23-Jun-17 22:01 37.040205 -115.210585 263 3699ft 411kts
23-Jun-17 22:02 37.028933 -115.186695 238 5610ft 297kts
23-Jun-17 22:03 37.047381 -115.183467 24 5570ft 273kts
23-Jun-17 22:04 37.042776 -115.209071 102 4995ft 409kts
23-Jun-17 22:05 37.034665 -115.216051 271 3681ft 464kts
23-Jun-17 22:06 37.026245 -115.166628 186 6381ft 426kts
23-Jun-17 22:07 37.035975 -115.191060 159 3670ft 332kts
23-Jun-17 22:08 37.050780 -115.196090 337 3629ft 374kts
23-Jun-17 22:09 37.072975 -115.154958 353 8530ft 343kts
23-Jun-17 22:10 37.019275 -115.104279 131 12047ft 505kts
23-Jun-17 22:11 36.891573 -115.004323 159 17032ft 564kts
23-Jun-17 22:12 36.731342 -114.982926 170 19231ft 568kts
23-Jun-17 22:13 36.571242 -114.953745 170 18060ft 591kts
23-Jun-17 22:14 36.409119 -114.919561 172 17580ft 581kts
23-Jun-17 22:15 36.274289 -114.995548 216 4774ft 492kts
23-Jun-17 22:16 36.250879 -115.016204 218 2014ft 223kts
23-Jun-17 22:17 36.233144 -115.012225 41 3732ft 238kts
23-Jun-17 22:18 36.239241 -115.028687 220 1850ft 57kts
23-Jun-17 22:19 36.230573 -115.033122 130 1847ft 24kts
23-Jun-17 22:20 36.231100 -115.025380 94 1848ft 0kts

Navigation Log

Ident Type
Flight plan parsing failed, navigation log unavailable